Time;durP1;ratioP1;P1;durP2;ratioP2;P2;SDS_P1;SDS_P2;PMS_P1;PMS_P2;Temp;Humidity;BMP_temperature;BMP_pressure;BME280_temperature;BME280_humidity;BME280_pressure;Samples;Min_cycle;Max_cycle;Signal;HPM_P1;HPM_P2
2021/11/14 00:00:00;;;;;;;27.07;15.60;;;9.40;97.60;;;;;;5093360;28;20433;-78
2021/11/14 00:02:26;;;;;;;30.40;15.57;;;9.30;97.40;;;;;;5097758;28;20436;-76
2021/11/14 00:04:52;;;;;;;25.40;14.57;;;9.30;97.50;;;;;;5099332;28;20500;-76
2021/11/14 00:07:18;;;;;;;28.00;13.77;;;9.30;97.50;;;;;;5092058;28;20970;-76
2021/11/14 00:09:45;;;;;;;25.00;14.50;;;9.30;97.40;;;;;;5093883;28;20267;-76
2021/11/14 00:12:11;;;;;;;22.97;14.23;;;9.30;97.00;;;;;;5093314;28;20520;-76
2021/11/14 00:14:38;;;;;;;30.63;17.43;;;9.30;96.90;;;;;;5092732;28;20431;-76
2021/11/14 00:17:04;;;;;;;27.80;15.47;;;9.30;97.00;;;;;;5092928;28;20817;-78
2021/11/14 00:19:30;;;;;;;30.13;15.40;;;9.30;97.10;;;;;;5093350;28;20425;-76
2021/11/14 00:21:56;;;;;;;28.33;16.13;;;9.30;97.10;;;;;;5091695;28;20460;-76
2021/11/14 00:24:22;;;;;;;30.93;16.33;;;9.30;97.00;;;;;;5092685;28;20525;-76
2021/11/14 00:26:48;;;;;;;27.57;16.30;;;9.30;96.80;;;;;;5092847;28;20441;-77
2021/11/14 00:29:13;;;;;;;32.47;16.00;;;9.30;96.80;;;;;;5092936;28;20527;-77
2021/11/14 00:31:40;;;;;;;30.40;16.63;;;9.30;96.70;;;;;;5092941;28;20187;-75
2021/11/14 00:34:06;;;;;;;35.17;17.90;;;9.30;96.50;;;;;;5090871;28;20266;-76
2021/11/14 00:36:37;;;;;;;28.77;15.17;;;9.30;96.40;;;;;;5091371;28;20444;-76
2021/11/14 00:39:07;;;;;;;29.97;16.50;;;9.30;96.20;;;;;;5091519;28;20421;-76
2021/11/14 00:41:33;;;;;;;32.97;18.67;;;9.20;96.30;;;;;;5089513;28;20452;-77
2021/11/14 00:44:00;;;;;;;30.30;17.07;;;9.20;96.40;;;;;;5092715;28;20425;-77
2021/11/14 00:46:26;;;;;;;31.67;17.27;;;9.20;96.50;;;;;;5092498;28;20452;-77
2021/11/14 00:48:53;;;;;;;33.53;17.47;;;9.20;96.60;;;;;;5092675;28;20429;-76
2021/11/14 00:51:28;;;;;;;36.40;18.57;;;9.20;96.60;;;;;;5092275;28;20417;-76
2021/11/14 00:53:54;;;;;;;33.87;17.50;;;9.30;96.60;;;;;;5092420;28;20421;-77
2021/11/14 00:56:20;;;;;;;28.90;17.60;;;9.30;96.30;;;;;;5092333;28;20496;-76
2021/11/14 00:58:46;;;;;;;33.40;17.63;;;9.30;96.10;;;;;;5099028;28;20452;-75
2021/11/14 01:01:12;;;;;;;33.40;20.97;;;9.30;96.10;;;;;;5102877;28;20208;-75
2021/11/14 01:03:37;;;;;;;30.80;17.37;;;9.20;96.10;;;;;;5094650;28;20172;-75
2021/11/14 01:06:03;;;;;;;36.20;18.33;;;9.10;96.30;;;;;;5091861;28;20523;-75
2021/11/14 01:08:29;;;;;;;33.60;18.73;;;9.10;96.40;;;;;;5099813;28;20179;-76
2021/11/14 01:10:57;;;;;;;35.80;19.60;;;9.10;96.50;;;;;;5091976;28;20189;-75
2021/11/14 01:13:23;;;;;;;36.67;18.83;;;9.10;96.60;;;;;;5091687;28;20649;-76
2021/11/14 01:15:50;;;;;;;32.00;16.60;;;9.10;96.70;;;;;;5090917;28;20528;-75
2021/11/14 01:18:18;;;;;;;33.77;18.13;;;9.10;96.70;;;;;;5091941;28;20434;-75
2021/11/14 01:20:46;;;;;;;32.57;17.43;;;9.10;96.90;;;;;;5090712;28;20516;-75
2021/11/14 01:23:12;;;;;;;35.80;19.60;;;9.10;96.90;;;;;;5096202;28;20425;-76
2021/11/14 01:25:39;;;;;;;31.53;18.17;;;9.10;96.90;;;;;;5092390;28;20483;-77
2021/11/14 01:28:06;;;;;;;30.67;16.80;;;9.10;96.90;;;;;;5091541;28;20433;-76
2021/11/14 01:30:36;;;;;;;35.53;18.47;;;9.10;97.00;;;;;;5090596;28;20422;-75
2021/11/14 01:33:04;;;;;;;28.97;18.13;;;9.10;97.00;;;;;;5092017;28;20436;-77
2021/11/14 01:35:31;;;;;;;37.23;18.23;;;9.10;97.00;;;;;;5093178;28;20438;-76
2021/11/14 01:37:57;;;;;;;37.50;19.73;;;9.10;97.10;;;;;;5097370;28;20441;-76
2021/11/14 01:40:29;;;;;;;35.40;19.30;;;9.20;96.80;;;;;;5090697;28;21081;-76
2021/11/14 01:42:55;;;;;;;39.07;20.20;;;9.10;96.60;;;;;;5091390;28;20429;-76
2021/11/14 01:45:22;;;;;;;36.23;19.43;;;9.00;96.60;;;;;;5091079;28;20496;-77
2021/11/14 01:47:48;;;;;;;31.30;17.60;;;9.00;96.70;;;;;;5091619;28;20483;-75
2021/11/14 01:50:17;;;;;;;34.93;18.23;;;9.00;96.90;;;;;;5091108;28;20413;-77
2021/11/14 01:52:45;;;;;;;30.33;17.57;;;9.10;97.00;;;;;;5091468;28;20494;-77
2021/11/14 01:55:13;;;;;;;34.73;18.93;;;9.00;97.10;;;;;;5098155;28;20424;-77
2021/11/14 01:57:39;;;;;;;37.60;19.97;;;9.00;97.20;;;;;;5090955;28;20441;-77
2021/11/14 02:00:24;;;;;;;29.53;18.10;;;9.00;97.20;;;;;;5091601;28;20421;-76
2021/11/14 02:02:51;;;;;;;35.50;19.67;;;9.00;97.30;;;;;;5091698;28;20183;-76
2021/11/14 02:05:22;;;;;;;34.40;18.97;;;9.00;97.30;;;;;;5091224;28;20560;-75
2021/11/14 02:07:48;;;;;;;35.60;19.60;;;9.00;97.30;;;;;;5091653;28;20506;-77
2021/11/14 02:10:14;;;;;;;35.13;20.10;;;9.00;97.40;;;;;;5091775;28;20417;-75
2021/11/14 02:12:40;;;;;;;32.27;18.23;;;9.00;97.40;;;;;;5090539;28;20432;-76
2021/11/14 02:15:06;;;;;;;34.07;17.73;;;9.00;97.40;;;;;;5091312;28;20179;-77
2021/11/14 02:17:32;;;;;;;31.80;18.23;;;9.00;97.50;;;;;;5099047;28;20219;-75
2021/11/14 02:19:58;;;;;;;31.77;17.73;;;9.00;97.40;;;;;;5090563;28;20966;-76
2021/11/14 02:22:24;;;;;;;35.37;18.80;;;9.00;97.40;;;;;;5105452;28;20425;-77
2021/11/14 02:24:50;;;;;;;36.30;17.50;;;9.00;97.40;;;;;;5090266;28;20468;-77
2021/11/14 02:27:15;;;;;;;35.57;18.27;;;9.10;97.30;;;;;;5091076;28;20203;-77
2021/11/14 02:29:41;;;;;;;39.37;18.67;;;9.00;97.30;;;;;;5091794;28;20213;-76
2021/11/14 02:32:08;;;;;;;35.70;18.07;;;9.00;97.30;;;;;;5091110;28;20267;-76
2021/11/14 02:34:34;;;;;;;37.43;20.03;;;9.00;97.40;;;;;;5089611;28;20433;-76
2021/11/14 02:37:00;;;;;;;35.03;17.67;;;8.90;97.40;;;;;;5097442;28;20440;-77
2021/11/14 02:39:26;;;;;;;33.63;17.60;;;8.90;97.50;;;;;;5091995;28;20504;-78
2021/11/14 02:41:52;;;;;;;34.30;19.00;;;8.90;97.60;;;;;;5093485;28;20562;-75
2021/11/14 02:44:18;;;;;;;33.30;17.83;;;8.90;97.70;;;;;;5096287;28;20486;-74
2021/11/14 02:46:44;;;;;;;32.00;17.17;;;8.90;97.90;;;;;;5092989;28;20433;-76
2021/11/14 02:49:10;;;;;;;39.63;19.33;;;8.90;97.90;;;;;;5092946;28;20796;-77
2021/11/14 02:51:36;;;;;;;34.30;19.03;;;9.00;97.70;;;;;;5093381;28;20186;-77
2021/11/14 02:54:04;;;;;;;35.80;19.47;;;8.90;97.70;;;;;;5092992;28;20529;-76
2021/11/14 02:56:30;;;;;;;33.33;17.90;;;9.00;97.90;;;;;;5092462;28;20476;-76
2021/11/14 02:58:57;;;;;;;30.70;17.40;;;9.00;97.90;;;;;;5090741;28;20417;-75
2021/11/14 03:01:43;;;;;;;31.80;17.20;;;9.00;97.70;;;;;;5090399;28;20440;-76
2021/11/14 03:04:17;;;;;;;33.50;17.97;;;9.00;97.40;;;;;;5089065;28;20911;-76
2021/11/14 03:06:43;;;;;;;26.03;14.70;;;9.00;97.20;;;;;;5095347;28;20442;-77
2021/11/14 03:09:09;;;;;;;31.60;17.63;;;9.00;97.10;;;;;;5101942;28;20409;-76
2021/11/14 03:11:36;;;;;;;34.70;17.17;;;9.00;97.10;;;;;;5102900;28;20441;-76
2021/11/14 03:14:03;;;;;;;31.50;17.67;;;9.00;97.00;;;;;;5093225;28;20409;-76
2021/11/14 03:16:28;;;;;;;30.87;16.47;;;9.00;97.00;;;;;;5090310;28;20445;-76
2021/11/14 03:18:56;;;;;;;30.33;17.50;;;9.00;97.00;;;;;;5089420;28;20500;-77
2021/11/14 03:21:22;;;;;;;40.63;16.70;;;9.10;97.00;;;;;;5090372;28;20991;-75
2021/11/14 03:23:49;;;;;;;37.97;19.30;;;9.10;97.00;;;;;;5088980;28;20940;-76
2021/11/14 03:26:15;;;;;;;34.43;16.63;;;9.00;96.90;;;;;;5090215;28;20563;-77
2021/11/14 03:28:41;;;;;;;33.00;17.17;;;9.00;97.00;;;;;;5090767;28;20574;-77
2021/11/14 03:31:07;;;;;;;33.43;16.90;;;9.10;96.90;;;;;;5094713;28;20417;-76
2021/11/14 03:33:33;;;;;;;31.70;17.37;;;9.00;96.80;;;;;;5091642;28;20439;-75
2021/11/14 03:36:04;;;;;;;32.73;17.47;;;9.00;96.80;;;;;;5096083;28;20186;-76
2021/11/14 03:38:43;;;;;;;35.77;16.60;;;9.00;96.90;;;;;;5100166;28;20179;-75
2021/11/14 03:41:12;;;;;;;32.63;18.40;;;9.00;97.10;;;;;;5094385;28;20494;-76
2021/11/14 03:43:38;;;;;;;37.57;18.33;;;9.00;97.20;;;;;;5094319;28;20444;-75
2021/11/14 03:46:05;;;;;;;31.80;18.13;;;9.00;97.20;;;;;;5095219;28;20491;-76
2021/11/14 03:48:32;;;;;;;33.17;17.87;;;9.00;97.30;;;;;;5086627;28;20417;-75
2021/11/14 03:50:58;;;;;;;33.40;19.13;;;9.00;97.20;;;;;;5094645;28;20421;-75
2021/11/14 03:53:24;;;;;;;35.93;18.57;;;9.00;97.30;;;;;;5098141;28;20405;-76
2021/11/14 03:55:51;;;;;;;34.90;18.57;;;9.00;97.30;;;;;;5096246;28;20434;-76
2021/11/14 03:58:18;;;;;;;39.23;19.33;;;9.10;97.30;;;;;;5094428;28;20443;-75
2021/11/14 04:00:47;;;;;;;38.30;18.93;;;9.10;97.30;;;;;;5094570;28;20413;-77
2021/11/14 04:03:13;;;;;;;35.10;17.67;;;9.10;97.20;;;;;;5099980;28;20933;-75
2021/11/14 04:05:39;;;;;;;31.77;16.33;;;9.10;97.00;;;;;;5094547;28;20464;-76
2021/11/14 04:08:14;;;;;;;34.27;18.87;;;9.10;96.90;;;;;;5094978;28;20440;-76
2021/11/14 04:10:43;;;;;;;34.10;17.33;;;9.00;96.80;;;;;;5093788;28;20417;-76
2021/11/14 04:13:09;;;;;;;34.90;18.20;;;9.00;96.80;;;;;;5095565;28;20421;-76
2021/11/14 04:15:36;;;;;;;37.13;17.83;;;9.10;96.80;;;;;;5095149;28;20503;-75
2021/11/14 04:18:02;;;;;;;37.37;17.70;;;9.00;96.90;;;;;;5093937;28;20951;-76
2021/11/14 04:20:30;;;;;;;29.10;16.73;;;9.00;97.10;;;;;;5098444;28;20413;-77
2021/11/14 04:22:56;;;;;;;33.93;17.50;;;9.00;97.20;;;;;;5102060;28;20427;-76
2021/11/14 04:25:23;;;;;;;34.70;17.27;;;9.00;97.30;;;;;;5100600;28;20456;-76
2021/11/14 04:27:49;;;;;;;31.43;17.57;;;9.00;97.30;;;;;;5095256;28;20443;-77
2021/11/14 04:30:16;;;;;;;35.50;18.53;;;9.00;97.20;;;;;;5094555;28;20417;-76
2021/11/14 04:32:42;;;;;;;32.70;17.27;;;9.00;97.20;;;;;;5093951;28;20179;-76
2021/11/14 04:35:08;;;;;;;41.87;20.70;;;9.00;97.20;;;;;;5092443;28;20431;-77
2021/11/14 04:37:35;;;;;;;33.07;17.57;;;9.00;96.90;;;;;;5093281;28;20456;-76
2021/11/14 04:40:01;;;;;;;37.43;19.20;;;8.90;96.70;;;;;;5092302;28;20535;-77
2021/11/14 04:42:26;;;;;;;33.97;18.63;;;8.80;96.80;;;;;;5092735;28;21135;-76
2021/11/14 04:44:52;;;;;;;36.40;19.00;;;8.90;97.10;;;;;;5090315;28;20812;-76
2021/11/14 04:47:18;;;;;;;38.13;19.33;;;8.90;97.20;;;;;;5088713;28;20696;-76
2021/11/14 04:49:44;;;;;;;32.93;16.20;;;8.90;97.30;;;;;;5091308;28;20186;-76
2021/11/14 04:52:10;;;;;;;36.07;18.70;;;8.90;97.40;;;;;;5091954;28;20425;-75
2021/11/14 04:54:36;;;;;;;37.53;20.10;;;9.00;97.40;;;;;;5091667;28;20191;-76
2021/11/14 04:57:02;;;;;;;36.50;18.87;;;9.00;97.40;;;;;;5090533;28;20244;-75
2021/11/14 04:59:28;;;;;;;32.80;17.97;;;9.00;97.50;;;;;;5092319;28;20203;-75
2021/11/14 05:01:54;;;;;;;37.63;18.63;;;9.00;97.50;;;;;;5091571;28;20537;-76
2021/11/14 05:04:19;;;;;;;33.00;17.50;;;9.00;97.50;;;;;;5091401;28;20207;-75
2021/11/14 05:06:45;;;;;;;36.80;18.77;;;9.00;97.50;;;;;;5092438;28;20873;-75
2021/11/14 05:09:11;;;;;;;29.60;15.50;;;9.10;97.40;;;;;;5093191;28;20187;-74
2021/11/14 05:11:37;;;;;;;37.03;18.40;;;9.10;97.30;;;;;;5091792;28;20193;-77
2021/11/14 05:14:04;;;;;;;37.40;17.17;;;9.10;97.20;;;;;;5092015;28;20256;-76
2021/11/14 05:16:29;;;;;;;32.83;16.97;;;9.10;97.20;;;;;;5083498;28;20429;-76
2021/11/14 05:18:56;;;;;;;28.97;16.33;;;9.10;97.10;;;;;;5092920;28;20876;-76
2021/11/14 05:21:22;;;;;;;30.10;15.93;;;9.10;96.90;;;;;;5093094;28;20183;-77
2021/11/14 05:23:48;;;;;;;28.90;15.90;;;9.00;96.80;;;;;;5093669;28;20432;-77
2021/11/14 05:26:14;;;;;;;32.53;16.43;;;9.00;96.80;;;;;;5092155;28;20305;-77
2021/11/14 05:28:40;;;;;;;40.80;19.03;;;9.00;96.90;;;;;;5093438;28;20899;-75
2021/11/14 05:31:06;;;;;;;36.30;16.87;;;8.90;96.80;;;;;;5092757;28;20413;-77
2021/11/14 05:33:32;;;;;;;36.47;17.50;;;9.00;96.90;;;;;;5092439;28;20938;-75
2021/11/14 05:35:57;;;;;;;35.70;17.37;;;9.00;97.00;;;;;;5094506;28;20632;-77
2021/11/14 05:38:23;;;;;;;40.87;19.67;;;9.00;96.90;;;;;;5097252;28;20259;-76
2021/11/14 05:40:49;;;;;;;39.93;21.13;;;9.00;96.80;;;;;;5094853;28;20596;-76
2021/11/14 05:43:16;;;;;;;32.60;18.10;;;9.00;96.80;;;;;;5092270;28;20478;-76
2021/11/14 05:45:42;;;;;;;42.47;18.23;;;9.00;97.00;;;;;;5091903;28;20268;-76
2021/11/14 05:48:08;;;;;;;38.83;17.87;;;9.00;97.00;;;;;;5093997;28;20440;-76
2021/11/14 05:50:34;;;;;;;37.57;18.63;;;8.90;97.10;;;;;;5094737;28;20430;-77
2021/11/14 05:53:00;;;;;;;29.43;15.93;;;8.90;97.30;;;;;;5092289;28;20412;-76
2021/11/14 05:55:26;;;;;;;34.07;17.60;;;8.90;97.50;;;;;;5092010;28;20911;-77
2021/11/14 05:57:56;;;;;;;38.20;18.87;;;9.00;97.60;;;;;;5091089;28;20551;-76
2021/11/14 06:00:32;;;;;;;36.00;17.27;;;8.90;97.60;;;;;;5093151;28;20429;-77
2021/11/14 06:05:29;;;;;;;35.17;17.70;;;8.90;97.70;;;;;;5093851;28;20461;-77
2021/11/14 06:07:55;;;;;;;33.60;17.80;;;8.90;98.00;;;;;;5094253;28;20506;-76
2021/11/14 06:10:21;;;;;;;33.17;18.20;;;9.00;98.00;;;;;;5092574;28;20413;-76
2021/11/14 06:12:48;;;;;;;31.80;15.60;;;9.00;98.00;;;;;;5093421;28;20217;-77
2021/11/14 06:15:18;;;;;;;39.27;17.70;;;9.10;97.80;;;;;;5091634;28;20187;-75
2021/11/14 06:17:44;;;;;;;36.20;17.87;;;9.10;97.70;;;;;;5091835;28;20445;-75
2021/11/14 06:20:10;;;;;;;38.07;18.17;;;9.00;97.70;;;;;;5091886;28;21023;-76
2021/11/14 06:22:36;;;;;;;30.17;16.50;;;9.00;97.60;;;;;;5091107;28;20646;-75
2021/11/14 06:25:02;;;;;;;37.43;18.60;;;9.00;97.90;;;;;;5091672;28;20559;-76
2021/11/14 06:27:28;;;;;;;34.93;17.40;;;9.00;97.80;;;;;;5091745;28;20976;-75
2021/11/14 06:29:54;;;;;;;34.23;17.43;;;9.10;97.70;;;;;;5095298;28;20413;-77
2021/11/14 06:32:19;;;;;;;33.83;16.50;;;9.10;97.50;;;;;;5108224;28;20195;-75
2021/11/14 06:34:45;;;;;;;35.80;18.07;;;9.10;97.30;;;;;;5111091;28;20280;-76
2021/11/14 06:37:11;;;;;;;40.43;18.80;;;9.00;97.30;;;;;;5095433;28;20207;-76
2021/11/14 06:39:38;;;;;;;34.10;16.97;;;9.00;97.30;;;;;;5106383;28;20444;-77
2021/11/14 06:42:05;;;;;;;37.13;18.07;;;9.00;97.40;;;;;;5107030;28;20223;-77
2021/11/14 06:44:31;;;;;;;38.03;19.57;;;9.00;97.60;;;;;;5098757;28;21198;-77
2021/11/14 06:46:58;;;;;;;35.90;17.07;;;9.00;97.60;;;;;;5091725;28;20514;-77
2021/11/14 06:49:24;;;;;;;35.17;18.00;;;9.00;97.60;;;;;;5090287;28;20786;-75
2021/11/14 06:51:50;;;;;;;41.50;19.47;;;9.00;97.70;;;;;;5091538;28;20709;-77
2021/11/14 06:54:16;;;;;;;39.80;19.63;;;9.00;97.90;;;;;;5089638;28;20523;-76
2021/11/14 06:56:42;;;;;;;33.27;17.60;;;9.00;97.70;;;;;;5090962;28;20876;-75
2021/11/14 06:59:07;;;;;;;37.93;18.90;;;9.10;97.70;;;;;;5090141;28;20825;-77
2021/11/14 07:01:33;;;;;;;36.60;17.90;;;9.10;97.70;;;;;;5091109;28;20182;-76
2021/11/14 07:03:59;;;;;;;35.77;19.77;;;9.10;97.60;;;;;;5090549;28;20225;-76
2021/11/14 07:06:24;;;;;;;32.50;18.67;;;9.10;97.60;;;;;;5090871;28;20230;-75
2021/11/14 07:08:50;;;;;;;34.37;17.70;;;9.10;97.50;;;;;;5090948;28;20244;-76
2021/11/14 07:11:17;;;;;;;38.80;19.00;;;9.20;97.40;;;;;;5090858;28;20187;-78
2021/11/14 07:13:44;;;;;;;29.77;16.07;;;9.20;97.30;;;;;;5090554;28;20594;-77
2021/11/14 07:16:09;;;;;;;30.73;15.97;;;9.20;97.10;;;;;;5090998;28;20472;-77
2021/11/14 07:18:35;;;;;;;34.40;18.90;;;9.20;96.90;;;;;;5090619;28;20528;-76
2021/11/14 07:21:02;;;;;;;31.20;15.77;;;9.20;96.80;;;;;;5089380;28;20194;-76
2021/11/14 07:23:27;;;;;;;37.27;18.60;;;9.20;96.70;;;;;;5091468;28;20191;-75
2021/11/14 07:25:53;;;;;;;34.50;18.20;;;9.20;96.70;;;;;;5091597;28;20472;-76
2021/11/14 07:28:19;;;;;;;36.67;17.97;;;9.20;96.80;;;;;;5091694;28;20183;-77
2021/11/14 07:30:45;;;;;;;35.80;18.37;;;9.20;96.90;;;;;;5091852;28;20214;-77
2021/11/14 07:33:11;;;;;;;36.07;16.70;;;9.20;97.00;;;;;;5091928;28;20175;-77
2021/11/14 07:35:37;;;;;;;37.30;17.40;;;9.30;96.90;;;;;;5091135;28;20424;-76
2021/11/14 07:38:03;;;;;;;30.20;16.97;;;9.30;96.90;;;;;;5091896;28;20209;-75
2021/11/14 07:40:29;;;;;;;32.93;17.57;;;9.40;96.80;;;;;;5092304;28;20207;-76
2021/11/14 07:42:56;;;;;;;40.23;20.80;;;9.40;96.70;;;;;;5093018;28;20797;-76
2021/11/14 07:45:24;;;;;;;32.07;17.43;;;9.40;96.70;;;;;;5090774;28;20540;-77
2021/11/14 07:47:51;;;;;;;41.33;20.87;;;9.40;96.60;;;;;;5092736;28;21062;-78
2021/11/14 07:50:19;;;;;;;39.33;18.37;;;9.50;96.50;;;;;;5090847;28;20432;-77
2021/11/14 07:52:45;;;;;;;36.27;18.43;;;9.50;96.30;;;;;;5091624;28;20455;-77
2021/11/14 07:55:11;;;;;;;41.60;18.80;;;9.50;96.20;;;;;;5091710;28;20440;-77
2021/11/14 07:57:43;;;;;;;40.13;18.50;;;9.50;96.10;;;;;;5092740;28;20460;-77
2021/11/14 08:00:13;;;;;;;32.43;16.30;;;9.40;96.10;;;;;;5092147;28;20440;-76
2021/11/14 08:02:39;;;;;;;33.13;17.20;;;9.40;96.10;;;;;;5090487;28;20987;-75
2021/11/14 08:05:05;;;;;;;38.10;19.50;;;9.40;96.10;;;;;;5090466;28;20501;-77
2021/11/14 08:07:31;;;;;;;35.30;18.57;;;9.40;96.20;;;;;;5090609;28;20445;-77
2021/11/14 08:09:57;;;;;;;33.73;18.77;;;9.30;96.20;;;;;;5090740;28;20876;-77
2021/11/14 08:12:22;;;;;;;38.80;19.60;;;9.30;96.50;;;;;;5090431;28;20194;-77
2021/11/14 08:14:49;;;;;;;38.63;19.50;;;9.20;96.60;;;;;;5090131;28;20197;-77
2021/11/14 08:17:16;;;;;;;39.00;19.17;;;9.30;96.80;;;;;;5088791;28;20357;-77
2021/11/14 08:19:42;;;;;;;38.00;19.33;;;9.30;96.70;;;;;;5090539;28;20425;-77
2021/11/14 08:22:08;;;;;;;40.73;19.70;;;9.30;96.50;;;;;;5091470;28;20912;-79
2021/11/14 08:24:34;;;;;;;32.40;18.20;;;9.40;96.50;;;;;;5095038;28;20858;-76
2021/11/14 08:26:59;;;;;;;33.87;19.93;;;9.40;96.50;;;;;;5095974;28;20452;-75
2021/11/14 08:29:25;;;;;;;37.03;19.17;;;9.50;96.30;;;;;;5094874;28;20176;-77
2021/11/14 08:31:51;;;;;;;32.87;17.33;;;9.60;96.30;;;;;;5096146;28;20190;-77
2021/11/14 08:34:17;;;;;;;34.53;18.70;;;9.60;96.20;;;;;;5094992;28;20210;-76
2021/11/14 08:36:43;;;;;;;34.93;18.23;;;9.70;95.90;;;;;;5095060;28;20520;-77
2021/11/14 08:39:09;;;;;;;37.93;19.43;;;9.80;95.50;;;;;;5094948;28;20179;-77
2021/11/14 08:41:35;;;;;;;33.67;17.27;;;9.80;95.30;;;;;;5093230;28;20187;-77
2021/11/14 08:44:00;;;;;;;35.23;17.40;;;9.70;95.10;;;;;;5094759;28;20467;-76
2021/11/14 08:46:27;;;;;;;31.93;18.00;;;9.70;95.00;;;;;;5094773;28;20468;-76
2021/11/14 08:48:53;;;;;;;36.70;18.10;;;9.70;94.80;;;;;;5094973;28;20241;-77
2021/11/14 08:51:20;;;;;;;32.67;17.57;;;9.80;94.80;;;;;;5094310;28;20428;-76
2021/11/14 08:53:47;;;;;;;34.10;18.90;;;9.80;94.60;;;;;;5094727;28;20413;-75
2021/11/14 08:56:13;;;;;;;29.07;16.20;;;9.90;94.60;;;;;;5094097;28;21025;-78
2021/11/14 08:58:40;;;;;;;30.67;17.33;;;10.00;94.60;;;;;;5095826;28;20417;-76
2021/11/14 09:01:09;;;;;;;33.30;16.80;;;10.10;94.20;;;;;;5097320;28;20179;-76
2021/11/14 09:03:35;;;;;;;33.97;16.50;;;10.20;94.10;;;;;;5095745;28;20763;-76
2021/11/14 09:06:01;;;;;;;30.33;17.03;;;10.20;93.60;;;;;;5094040;28;21242;-77
2021/11/14 09:08:27;;;;;;;26.20;14.53;;;10.30;93.10;;;;;;5094623;28;20833;-76
2021/11/14 09:10:54;;;;;;;27.20;14.60;;;10.30;92.80;;;;;;5094213;28;20417;-76
2021/11/14 09:13:20;;;;;;;25.30;15.47;;;10.30;92.70;;;;;;5094489;28;20418;-76
2021/11/14 09:15:46;;;;;;;29.67;16.43;;;10.20;92.00;;;;;;5094782;28;20806;-76
2021/11/14 09:18:12;;;;;;;28.37;16.60;;;10.20;92.60;;;;;;5094154;28;20491;-77
2021/11/14 09:20:37;;;;;;;27.73;14.57;;;10.30;92.80;;;;;;5095508;28;20968;-76
2021/11/14 09:23:04;;;;;;;29.50;15.43;;;10.30;92.70;;;;;;5095685;28;20413;-80
2021/11/14 09:25:30;;;;;;;28.10;15.43;;;10.20;92.20;;;;;;5095798;28;20700;-77
2021/11/14 09:27:56;;;;;;;29.40;16.47;;;10.10;92.60;;;;;;5095026;28;20445;-77
2021/11/14 09:30:22;;;;;;;30.70;16.53;;;10.10;93.10;;;;;;5094018;28;20546;-77
2021/11/14 09:32:48;;;;;;;28.83;15.93;;;10.20;93.10;;;;;;5093253;28;20191;-77
2021/11/14 09:35:15;;;;;;;33.83;16.60;;;10.20;92.70;;;;;;5092969;28;20535;-76
2021/11/14 09:37:41;;;;;;;27.27;15.90;;;10.20;92.60;;;;;;5092154;28;20884;-76
2021/11/14 09:40:09;;;;;;;34.63;16.07;;;10.20;92.50;;;;;;5093653;28;20471;-76
2021/11/14 09:42:36;;;;;;;31.80;16.20;;;10.20;92.70;;;;;;5092182;28;20490;-76
2021/11/14 09:45:04;;;;;;;27.97;14.97;;;10.30;92.70;;;;;;5097967;28;20508;-77
2021/11/14 09:47:30;;;;;;;25.73;15.27;;;10.30;92.60;;;;;;5085812;28;20461;-77
2021/11/14 09:49:58;;;;;;;32.03;15.60;;;10.30;92.60;;;;;;5094042;28;20418;-77
2021/11/14 09:52:26;;;;;;;27.80;15.60;;;10.40;92.60;;;;;;5093432;28;20183;-78
2021/11/14 09:54:52;;;;;;;32.97;17.23;;;10.40;92.50;;;;;;5092608;28;20419;-78
2021/11/14 09:57:18;;;;;;;32.80;15.90;;;10.40;92.60;;;;;;5092994;28;20429;-77
2021/11/14 09:59:44;;;;;;;33.10;16.73;;;10.30;92.60;;;;;;5094477;28;20421;-76
2021/11/14 10:02:10;;;;;;;33.50;16.57;;;10.30;92.70;;;;;;5094702;28;20436;-77
2021/11/14 10:04:38;;;;;;;29.37;16.83;;;10.40;92.80;;;;;;5092710;28;20203;-77
2021/11/14 10:07:10;;;;;;;36.80;17.80;;;10.40;92.50;;;;;;5098530;28;20962;-76
2021/11/14 10:09:43;;;;;;;29.97;15.60;;;10.40;92.50;;;;;;5109415;28;20445;-77
2021/11/14 10:12:35;;;;;;;30.13;16.30;;;10.40;92.40;;;;;;5102290;28;20405;-77
2021/11/14 10:15:18;;;;;;;28.40;15.73;;;10.40;92.10;;;;;;5107238;28;20512;-75
2021/11/14 10:17:50;;;;;;;26.70;16.00;;;10.40;92.30;;;;;;5093517;28;20452;-77
2021/11/14 10:20:23;;;;;;;32.57;17.30;;;10.50;92.10;;;;;;5098658;28;20911;-75
2021/11/14 10:22:56;;;;;;;30.07;16.80;;;10.50;91.90;;;;;;5097934;28;20969;-76
2021/11/14 10:25:22;;;;;;;32.23;17.37;;;10.50;92.10;;;;;;5092880;28;21010;-77
2021/11/14 10:27:52;;;;;;;30.37;16.20;;;10.50;91.90;;;;;;5094342;28;20445;-76
2021/11/14 10:30:20;;;;;;;31.70;16.70;;;10.50;91.80;;;;;;5091271;28;20421;-76
2021/11/14 10:32:46;;;;;;;33.77;17.60;;;10.50;92.00;;;;;;5091802;28;20500;-76
2021/11/14 10:35:12;;;;;;;33.60;16.83;;;10.50;92.10;;;;;;5091802;28;20510;-79
2021/11/14 10:37:44;;;;;;;28.57;16.40;;;10.60;92.30;;;;;;5091968;28;20207;-77
2021/11/14 10:40:18;;;;;;;30.73;15.20;;;10.60;92.00;;;;;;5091489;28;20214;-77
2021/11/14 10:42:48;;;;;;;30.57;16.07;;;10.70;92.00;;;;;;5090868;28;20951;-76
2021/11/14 10:45:15;;;;;;;32.80;15.90;;;10.80;91.90;;;;;;5091401;28;20604;-77
2021/11/14 10:47:41;;;;;;;30.57;15.00;;;10.90;91.60;;;;;;5092128;28;20807;-76
2021/11/14 10:50:13;;;;;;;30.57;16.20;;;10.70;91.00;;;;;;5095872;28;20414;-77
2021/11/14 10:52:55;;;;;;;36.00;17.67;;;10.70;91.20;;;;;;5100093;28;20470;-78
2021/11/14 10:55:21;;;;;;;36.33;16.73;;;10.60;91.50;;;;;;5095013;28;20873;-78
2021/11/14 10:57:49;;;;;;;28.70;15.00;;;10.60;91.70;;;;;;5093621;28;20444;-76
2021/11/14 11:00:17;;;;;;;29.00;16.83;;;10.60;91.50;;;;;;5094090;28;20424;-77
2021/11/14 11:02:44;;;;;;;38.43;20.40;;;10.50;91.80;;;;;;5099799;28;20417;-77
2021/11/14 11:05:20;;;;;;;37.63;19.77;;;10.50;92.20;;;;;;5104603;28;20467;-76
2021/11/14 11:07:59;;;;;;;46.80;18.23;;;10.60;92.10;;;;;;5100407;28;20519;-76
2021/11/14 11:10:31;;;;;;;33.50;16.20;;;10.60;92.00;;;;;;5092769;28;20413;-77
2021/11/14 11:12:58;;;;;;;32.70;16.10;;;10.60;92.00;;;;;;5093166;28;20440;-75
2021/11/14 11:15:24;;;;;;;38.23;17.07;;;10.60;92.00;;;;;;5091603;28;20783;-78
2021/11/14 11:17:52;;;;;;;35.27;15.63;;;10.60;91.40;;;;;;5093825;28;20528;-77
2021/11/14 11:20:24;;;;;;;38.00;17.10;;;10.60;91.30;;;;;;5091162;28;20248;-78
2021/11/14 11:22:56;;;;;;;32.33;14.90;;;10.60;91.20;;;;;;5091080;28;20428;-77
2021/11/14 11:25:41;;;;;;;34.40;15.70;;;10.50;91.10;;;;;;5090424;28;20460;-77
2021/11/14 11:28:17;;;;;;;31.23;16.33;;;10.70;91.10;;;;;;5089405;28;20476;-78
2021/11/14 11:30:49;;;;;;;33.93;15.53;;;10.80;90.50;;;;;;5092826;28;20409;-77
2021/11/14 11:33:17;;;;;;;31.13;15.90;;;10.90;90.50;;;;;;5090859;28;20431;-77
2021/11/14 11:35:43;;;;;;;36.47;15.87;;;10.90;90.10;;;;;;5090236;28;20435;-77
2021/11/14 11:38:09;;;;;;;31.47;15.90;;;10.90;90.40;;;;;;5090858;28;20441;-76
2021/11/14 11:40:35;;;;;;;31.00;16.27;;;10.90;90.30;;;;;;5088835;28;20447;-76
2021/11/14 11:43:01;;;;;;;33.63;15.07;;;10.90;90.50;;;;;;5089213;28;20196;-76
2021/11/14 11:45:30;;;;;;;32.43;16.50;;;10.80;90.70;;;;;;5089903;28;20465;-76
2021/11/14 11:47:59;;;;;;;30.80;15.37;;;10.80;90.90;;;;;;5091060;28;20529;-76
2021/11/14 11:50:28;;;;;;;31.70;15.83;;;10.80;91.10;;;;;;5097362;28;20489;-77
2021/11/14 11:52:54;;;;;;;29.60;15.20;;;10.80;90.80;;;;;;5089822;28;20417;-76
2021/11/14 11:55:27;;;;;;;31.27;14.90;;;10.90;90.90;;;;;;5090995;28;20935;-76
2021/11/14 11:58:06;;;;;;;34.53;15.77;;;10.90;90.90;;;;;;5093705;28;20790;-76
2021/11/14 12:00:32;;;;;;;30.83;15.80;;;10.90;90.90;;;;;;5088107;28;20511;-76
2021/11/14 12:02:58;;;;;;;29.47;15.10;;;10.80;91.00;;;;;;5095774;28;20566;-77
2021/11/14 12:05:25;;;;;;;36.17;15.27;;;10.70;91.50;;;;;;5095510;28;20286;-76
2021/11/14 12:07:53;;;;;;;30.00;16.20;;;10.70;91.60;;;;;;5096065;28;20662;-77
2021/11/14 12:10:27;;;;;;;30.73;15.60;;;10.60;91.80;;;;;;5096658;28;20935;-76
2021/11/14 12:12:55;;;;;;;30.80;15.73;;;10.70;92.00;;;;;;5094959;28;20504;-77
2021/11/14 12:15:27;;;;;;;31.47;15.83;;;10.80;92.00;;;;;;5093847;28;20413;-77
2021/11/14 12:17:59;;;;;;;33.90;16.50;;;10.80;92.00;;;;;;5094340;28;20935;-77
2021/11/14 12:20:38;;;;;;;33.80;16.07;;;10.90;91.70;;;;;;5093343;28;21270;-77
2021/11/14 12:23:17;;;;;;;31.77;17.00;;;11.00;91.70;;;;;;5095252;28;20423;-78
2021/11/14 12:25:46;;;;;;;28.63;14.73;;;11.20;91.50;;;;;;5087484;28;20468;-76
2021/11/14 12:28:15;;;;;;;30.47;14.77;;;11.40;90.80;;;;;;5094153;28;20436;-77
2021/11/14 12:30:45;;;;;;;28.40;14.43;;;11.50;90.30;;;;;;5094443;28;20451;-77
2021/11/14 12:33:24;;;;;;;33.03;15.67;;;11.50;89.60;;;;;;5094296;28;20527;-77
2021/11/14 12:35:54;;;;;;;31.13;16.10;;;11.60;89.60;;;;;;5094173;28;20416;-76